Time;durP1;ratioP1;P1;durP2;ratioP2;P2;SDS_P1;SDS_P2;PMS_P1;PMS_P2;Temp;Humidity;BMP_temperature;BMP_pressure;BME280_temperature;BME280_humidity;BME280_pressure;Samples;Min_cycle;Max_cycle;Signal;HPM_P1;HPM_P2
2022/08/13 00:02:24;;;;;;;14.00;6.40;;;;;;;19.03;69.48;100528.43;107214;1268;22630;-78
2022/08/13 00:04:59;;;;;;;13.50;6.50;;;;;;;19.04;69.55;100531.98;107212;1268;22647;-80
2022/08/13 00:07:32;;;;;;;13.00;6.30;;;;;;;19.04;69.80;100532.02;107331;1268;22564;-79
2022/08/13 00:10:05;;;;;;;15.10;7.40;;;;;;;19.04;70.65;100528.10;107268;1268;22567;-79
2022/08/13 00:15:30;;;;;;;13.90;7.00;;;;;;;19.00;71.05;100527.42;107230;1268;23435;-79
2022/08/13 00:18:05;;;;;;;14.00;6.60;;;;;;;18.98;71.30;100532.04;107287;1268;25688;-79
2022/08/13 00:20:40;;;;;;;15.70;7.00;;;;;;;18.96;71.32;100527.48;107139;1268;22467;-78
2022/08/13 00:23:14;;;;;;;14.50;6.70;;;;;;;18.97;71.51;100533.13;107184;1268;26379;-78
2022/08/13 00:25:47;;;;;;;14.20;7.40;;;;;;;18.95;71.74;100534.02;107268;1268;22546;-78
2022/08/13 00:28:22;;;;;;;15.70;7.50;;;;;;;18.94;71.72;100532.07;107094;1268;25399;-78
2022/08/13 00:30:55;;;;;;;15.20;6.90;;;;;;;18.95;71.63;100527.34;107001;1270;22535;-79
2022/08/13 00:33:27;;;;;;;15.80;6.60;;;;;;;18.93;71.83;100527.30;107218;1268;22544;-78
2022/08/13 00:35:58;;;;;;;15.00;7.00;;;;;;;18.93;71.75;100524.32;107281;1268;22525;-79
2022/08/13 00:38:29;;;;;;;13.80;6.70;;;;;;;18.94;71.81;100526.98;107219;1268;22654;-79
2022/08/13 00:41:01;;;;;;;18.20;7.40;;;;;;;18.94;72.00;100528.67;107203;1268;22611;-78
2022/08/13 00:43:34;;;;;;;14.70;6.70;;;;;;;18.94;72.01;100530.21;107211;1268;25280;-77
2022/08/13 00:46:06;;;;;;;15.80;7.20;;;;;;;18.94;72.06;100523.42;107241;1268;22558;-78
2022/08/13 00:48:43;;;;;;;15.20;6.80;;;;;;;18.94;72.42;100524.30;107188;1268;24595;-79
2022/08/13 00:51:16;;;;;;;14.60;7.00;;;;;;;18.94;72.23;100519.89;107211;1268;24207;-79
2022/08/13 00:53:48;;;;;;;15.20;6.70;;;;;;;18.94;72.29;100521.94;107100;1268;24345;-78
2022/08/13 00:56:22;;;;;;;13.90;7.40;;;;;;;18.94;72.50;100525.64;107135;1268;22537;-78
2022/08/13 00:58:56;;;;;;;12.60;6.20;;;;;;;18.92;72.33;100521.23;107031;1268;24224;-79
2022/08/13 01:01:28;;;;;;;15.80;7.50;;;;;;;18.93;72.72;100517.42;107351;1268;24356;-78
2022/08/13 01:04:02;;;;;;;14.50;6.60;;;;;;;18.94;72.68;100520.90;107141;1268;22531;-78
2022/08/13 01:06:34;;;;;;;14.30;6.50;;;;;;;18.95;72.53;100515.20;107240;1268;22681;-79
2022/08/13 01:09:08;;;;;;;16.90;7.70;;;;;;;18.98;72.74;100514.80;107209;1268;25370;-79
2022/08/13 01:11:41;;;;;;;14.40;6.60;;;;;;;19.00;72.66;100516.07;107229;1268;22544;-78
2022/08/13 01:14:13;;;;;;;12.40;5.70;;;;;;;19.02;72.61;100512.38;107220;1268;25319;-79
2022/08/13 01:16:44;;;;;;;13.00;6.00;;;;;;;19.04;72.81;100513.30;107256;1268;23092;-79
2022/08/13 01:19:17;;;;;;;13.30;6.40;;;;;;;19.05;73.06;100508.97;107162;1268;25424;-78
2022/08/13 01:21:53;;;;;;;14.60;6.30;;;;;;;19.03;73.06;100504.61;107141;1268;22547;-78
2022/08/13 01:24:24;;;;;;;17.10;6.10;;;;;;;19.05;73.19;100503.88;107158;1268;24154;-78
2022/08/13 01:26:56;;;;;;;15.60;6.70;;;;;;;19.05;72.93;100501.35;107166;1268;24164;-77
2022/08/13 01:29:30;;;;;;;13.50;6.50;;;;;;;19.07;73.11;100497.87;107032;1268;22527;-78
2022/08/13 01:32:01;;;;;;;13.90;6.60;;;;;;;19.09;73.42;100497.27;107288;1268;25386;-79
2022/08/13 01:34:33;;;;;;;14.50;6.50;;;;;;;19.09;73.41;100493.33;107207;1268;22527;-78
2022/08/13 01:37:05;;;;;;;13.60;6.70;;;;;;;19.10;73.23;100488.68;107233;1268;22548;-78
2022/08/13 01:39:37;;;;;;;14.10;6.80;;;;;;;19.13;73.40;100487.00;107151;1268;22608;-77
2022/08/13 01:42:19;;;;;;;16.50;6.70;;;;;;;19.12;73.55;100483.80;107286;1267;23102;-79
2022/08/13 01:44:51;;;;;;;13.20;6.50;;;;;;;19.13;73.65;100485.25;107223;1268;22562;-78
2022/08/13 01:50:31;;;;;;;13.60;6.10;;;;;;;19.17;73.55;100485.06;107228;1268;24365;-78
2022/08/13 01:53:05;;;;;;;15.50;6.90;;;;;;;19.19;73.57;100484.01;107085;1268;26623;-77
2022/08/13 01:55:39;;;;;;;17.00;6.50;;;;;;;19.21;73.54;100486.39;107294;1268;25940;-78
2022/08/13 01:58:13;;;;;;;14.20;6.30;;;;;;;19.23;73.52;100488.67;107122;1268;22529;-78
2022/08/13 02:00:46;;;;;;;13.40;6.30;;;;;;;19.25;73.66;100492.25;107085;1268;22555;-78
2022/08/13 02:03:19;;;;;;;14.50;6.90;;;;;;;19.26;73.67;100490.13;107216;1268;22763;-79
2022/08/13 02:05:52;;;;;;;16.00;6.70;;;;;;;19.28;73.96;100493.56;107181;1268;24237;-78
2022/08/13 02:08:26;;;;;;;13.50;5.70;;;;;;;19.29;74.30;100494.30;107182;1268;22694;-78
2022/08/13 02:10:57;;;;;;;13.30;6.10;;;;;;;19.28;74.65;100493.97;107183;1268;22565;-78
2022/08/13 02:13:29;;;;;;;13.70;6.50;;;;;;;19.27;75.28;100494.70;107103;1268;22607;-78
2022/08/13 02:16:01;;;;;;;15.80;7.60;;;;;;;19.22;75.70;100494.45;107050;1268;24356;-76
2022/08/13 02:18:33;;;;;;;14.50;6.60;;;;;;;19.20;76.28;100488.11;106964;1268;25373;-78
2022/08/13 02:21:05;;;;;;;13.40;7.00;;;;;;;19.14;76.49;100481.64;107039;1268;24398;-78
2022/08/13 02:23:37;;;;;;;13.30;5.90;;;;;;;19.11;76.59;100479.36;107185;1268;22610;-78
2022/08/13 02:26:13;;;;;;;14.80;6.40;;;;;;;19.10;76.76;100472.42;107356;1268;22574;-78
2022/08/13 02:28:45;;;;;;;12.00;5.30;;;;;;;19.11;77.05;100471.54;107149;1268;23435;-78
2022/08/13 02:31:17;;;;;;;12.00;5.60;;;;;;;19.10;77.38;100472.84;107068;1268;22687;-78
2022/08/13 02:33:49;;;;;;;12.30;6.60;;;;;;;19.04;78.03;100475.12;107076;1268;22681;-77
2022/08/13 02:36:22;;;;;;;12.40;6.60;;;;;;;19.02;78.36;100471.48;107042;1268;22773;-78
2022/08/13 02:38:57;;;;;;;14.50;7.30;;;;;;;18.97;78.74;100474.27;107174;1268;25382;-77
2022/08/13 02:41:46;;;;;;;11.70;6.40;;;;;;;18.95;78.75;100472.60;107171;1268;25123;-78
2022/08/13 02:44:18;;;;;;;13.30;6.20;;;;;;;18.94;78.60;100468.39;106976;1268;24218;-77
2022/08/13 02:46:50;;;;;;;13.60;6.30;;;;;;;18.96;78.47;100462.41;106945;1268;24354;-77
2022/08/13 02:49:23;;;;;;;12.80;6.20;;;;;;;18.99;78.66;100468.02;107072;1268;22580;-77
2022/08/13 02:51:54;;;;;;;13.40;6.70;;;;;;;19.00;78.85;100464.41;107001;1268;25366;-78
2022/08/13 02:54:28;;;;;;;12.40;6.20;;;;;;;18.98;78.89;100465.66;107004;1268;25517;-77
2022/08/13 02:57:00;;;;;;;14.00;6.40;;;;;;;18.98;79.01;100468.41;106956;1268;22660;-77
2022/08/13 02:59:31;;;;;;;11.70;5.90;;;;;;;18.97;79.39;100465.41;106999;1268;22545;-77
2022/08/13 03:02:03;;;;;;;14.30;6.00;;;;;;;18.95;79.43;100461.23;106924;1268;24722;-78
2022/08/13 03:04:35;;;;;;;17.40;6.30;;;;;;;18.95;79.74;100460.31;107091;1268;22647;-77
2022/08/13 03:07:06;;;;;;;11.50;6.00;;;;;;;18.91;80.08;100455.31;106989;1268;22699;-78
2022/08/13 03:09:38;;;;;;;15.90;7.30;;;;;;;18.87;80.18;100458.39;106976;1267;22576;-78
2022/08/13 03:12:12;;;;;;;12.50;6.20;;;;;;;18.84;80.22;100450.14;107003;1268;25054;-78
2022/08/13 03:14:44;;;;;;;14.20;6.20;;;;;;;18.86;80.13;100439.99;106999;1268;25378;-78
2022/08/13 03:17:15;;;;;;;16.40;7.30;;;;;;;18.87;80.37;100441.37;106968;1268;24477;-77
2022/08/13 03:19:47;;;;;;;15.00;7.30;;;;;;;18.88;80.48;100444.45;106934;1268;27474;-77
2022/08/13 03:22:18;;;;;;;14.90;7.40;;;;;;;18.87;80.59;100442.96;107005;1268;22467;-77
2022/08/13 03:24:49;;;;;;;14.60;7.70;;;;;;;18.87;80.83;100445.48;106959;1268;22636;-78
2022/08/13 03:27:20;;;;;;;16.60;8.50;;;;;;;18.87;80.87;100441.47;106999;1268;22629;-78
2022/08/13 03:29:53;;;;;;;13.90;7.30;;;;;;;18.88;81.02;100439.86;106897;1268;25436;-78
2022/08/13 03:32:26;;;;;;;13.50;6.90;;;;;;;18.89;81.03;100440.98;106962;1268;24354;-78
2022/08/13 03:34:58;;;;;;;14.40;6.70;;;;;;;18.92;81.26;100443.52;106998;1268;22593;-78
2022/08/13 03:37:29;;;;;;;14.30;7.50;;;;;;;18.92;81.36;100443.05;107007;1268;23556;-78
2022/08/13 03:40:01;;;;;;;14.80;7.60;;;;;;;18.92;81.46;100444.66;107030;1268;25144;-77
2022/08/13 03:42:32;;;;;;;14.90;7.40;;;;;;;18.91;81.20;100448.36;107029;1268;22609;-77
2022/08/13 03:45:04;;;;;;;14.60;7.90;;;;;;;18.92;81.22;100441.15;106910;1268;22604;-78
2022/08/13 03:47:39;;;;;;;16.00;8.10;;;;;;;18.93;81.46;100442.95;107110;1268;22602;-78
2022/08/13 03:50:13;;;;;;;13.80;6.50;;;;;;;18.92;81.61;100445.31;106998;1268;22772;-77
2022/08/13 03:52:44;;;;;;;16.60;7.80;;;;;;;18.92;81.53;100442.54;106983;1268;25369;-78
2022/08/13 03:55:18;;;;;;;13.50;7.40;;;;;;;18.91;81.93;100440.80;107026;1268;22526;-78
2022/08/13 03:57:50;;;;;;;15.40;7.90;;;;;;;18.91;81.96;100443.84;106912;1268;24296;-78
2022/08/13 04:00:22;;;;;;;15.70;8.20;;;;;;;18.91;82.03;100439.46;106910;1268;25357;-78
2022/08/13 04:02:53;;;;;;;12.80;7.10;;;;;;;18.90;82.28;100438.25;106832;1268;22582;-77
2022/08/13 04:05:25;;;;;;;15.90;8.90;;;;;;;18.90;82.22;100433.10;106965;1268;22748;-78
2022/08/13 04:07:57;;;;;;;16.30;8.40;;;;;;;18.89;82.51;100427.55;107033;1268;22556;-77
2022/08/13 04:10:28;;;;;;;14.40;7.00;;;;;;;18.90;82.31;100430.02;106948;1268;22643;-77
2022/08/13 04:13:00;;;;;;;16.30;8.50;;;;;;;18.91;82.35;100430.01;106981;1268;26751;-78
2022/08/13 04:15:31;;;;;;;17.50;9.40;;;;;;;18.92;82.39;100432.26;106976;1268;25784;-78
2022/08/13 04:18:03;;;;;;;16.90;9.00;;;;;;;18.91;83.09;100427.13;107027;1268;25937;-78
2022/08/13 04:20:36;;;;;;;17.90;8.50;;;;;;;18.84;83.10;100427.10;106907;1268;25570;-78
2022/08/13 04:23:13;;;;;;;16.00;8.30;;;;;;;18.84;83.13;100431.58;107095;1268;22739;-78
2022/08/13 04:25:47;;;;;;;14.70;7.80;;;;;;;18.83;83.28;100427.52;107071;1268;22692;-78
2022/08/13 04:28:21;;;;;;;14.10;7.40;;;;;;;18.82;83.42;100426.40;106995;1268;22567;-78
2022/08/13 04:30:53;;;;;;;17.60;9.10;;;;;;;18.78;83.50;100422.95;106963;1268;22686;-78
2022/08/13 04:33:25;;;;;;;13.40;7.60;;;;;;;18.79;83.58;100420.39;107018;1268;22544;-78
2022/08/13 04:35:57;;;;;;;14.60;7.10;;;;;;;18.78;83.73;100417.10;106991;1268;22691;-77
2022/08/13 04:38:28;;;;;;;15.40;8.00;;;;;;;18.79;83.85;100414.20;106991;1268;24358;-78
2022/08/13 04:41:01;;;;;;;15.30;8.80;;;;;;;18.81;83.96;100411.98;107009;1268;22556;-77
2022/08/13 04:43:33;;;;;;;14.70;7.70;;;;;;;18.83;84.16;100416.98;107033;1268;22532;-77
2022/08/13 04:46:05;;;;;;;16.40;8.40;;;;;;;18.83;83.95;100419.50;106965;1268;22522;-77
2022/08/13 04:48:46;;;;;;;16.50;7.50;;;;;;;18.84;84.40;100420.88;106963;1268;22525;-77
2022/08/13 04:51:17;;;;;;;16.60;9.00;;;;;;;18.82;84.23;100421.10;107045;1268;26187;-78
2022/08/13 04:53:48;;;;;;;15.90;8.10;;;;;;;18.84;84.54;100419.96;107309;1258;22540;-72
2022/08/13 04:56:20;;;;;;;15.90;8.40;;;;;;;18.81;84.45;100424.77;106402;1270;22832;-71
2022/08/13 04:58:51;;;;;;;14.00;8.00;;;;;;;18.82;84.65;100426.52;105429;1270;1290165;-71
2022/08/13 05:01:23;;;;;;;17.00;7.80;;;;;;;18.83;84.43;100427.02;106553;1267;22715;-71
2022/08/13 05:03:55;;;;;;;14.60;7.40;;;;;;;18.87;85.04;100428.10;106522;1270;22553;-71
2022/08/13 05:06:27;;;;;;;14.00;7.10;;;;;;;18.84;84.81;100425.56;106416;1270;22625;-71
2022/08/13 05:09:01;;;;;;;16.00;8.40;;;;;;;18.87;84.85;100429.99;106514;1270;24419;-71
2022/08/13 05:11:33;;;;;;;15.70;8.80;;;;;;;18.88;85.27;100429.89;106390;1269;22529;-71
2022/08/13 05:14:04;;;;;;;15.00;8.10;;;;;;;18.87;85.27;100432.77;106363;1270;22640;-71
2022/08/13 05:16:36;;;;;;;14.70;7.40;;;;;;;18.87;85.40;100431.02;106483;1268;22708;-71
2022/08/13 05:19:08;;;;;;;15.80;8.00;;;;;;;18.87;85.54;100430.30;106487;1270;25335;-69
2022/08/13 05:21:41;;;;;;;16.80;8.30;;;;;;;18.88;85.65;100432.71;106345;1270;23224;-71
2022/08/13 05:24:13;;;;;;;15.70;8.30;;;;;;;18.89;85.89;100424.58;106519;1270;22539;-71
2022/08/13 05:26:44;;;;;;;16.30;8.30;;;;;;;18.89;85.73;100426.23;106314;1270;22622;-71
2022/08/13 05:29:15;;;;;;;14.90;7.70;;;;;;;18.90;85.90;100423.79;106435;1270;22578;-71
2022/08/13 05:31:46;;;;;;;18.00;8.60;;;;;;;18.90;85.94;100419.30;106304;1270;22549;-71
2022/08/13 05:34:19;;;;;;;14.70;7.90;;;;;;;18.90;86.03;100421.42;106446;1270;25497;-71
2022/08/13 05:36:52;;;;;;;17.00;9.00;;;;;;;18.91;85.92;100422.19;106490;1270;24430;-71
2022/08/13 05:39:24;;;;;;;16.90;9.00;;;;;;;18.93;86.07;100422.84;106499;1270;22824;-71
2022/08/13 05:41:55;;;;;;;14.80;8.20;;;;;;;18.93;86.19;100424.20;106505;1270;22557;-71
2022/08/13 05:44:27;;;;;;;16.20;8.40;;;;;;;18.91;86.20;100423.52;106510;1269;22702;-71
2022/08/13 05:46:58;;;;;;;15.90;8.70;;;;;;;18.93;86.27;100424.32;106458;1270;25239;-72
2022/08/13 05:49:29;;;;;;;16.80;7.60;;;;;;;18.93;86.13;100422.77;106397;1268;22600;-71
2022/08/13 05:52:01;;;;;;;16.80;8.80;;;;;;;18.95;86.34;100425.23;106510;1270;22619;-71
2022/08/13 05:54:34;;;;;;;17.20;9.30;;;;;;;18.98;86.33;100424.42;106374;1270;23404;-71
2022/08/13 05:57:07;;;;;;;16.30;8.80;;;;;;;18.98;86.74;100420.20;106615;1270;24157;-71
2022/08/13 06:05:22;;;;;;;17.60;9.30;;;;;;;18.99;86.63;100415.56;106403;1270;24557;-72
2022/08/13 06:07:54;;;;;;;15.80;8.50;;;;;;;19.00;87.11;100410.81;106296;1270;25239;-71
2022/08/13 06:10:26;;;;;;;17.10;9.50;;;;;;;18.99;87.08;100408.50;106543;1270;24369;-72
2022/08/13 06:12:58;;;;;;;18.50;10.50;;;;;;;18.99;87.32;100407.90;106493;1270;25241;-72
2022/08/13 06:15:33;;;;;;;19.00;10.80;;;;;;;19.00;87.30;100409.47;106443;1270;23002;-71
2022/08/13 06:18:05;;;;;;;18.20;9.80;;;;;;;19.01;87.43;100410.55;106477;1270;24257;-71
2022/08/13 06:20:36;;;;;;;19.50;10.30;;;;;;;19.03;87.19;100410.77;106439;1270;24453;-72
2022/08/13 06:23:12;;;;;;;17.80;9.60;;;;;;;19.06;87.38;100413.56;106500;1270;24316;-71
2022/08/13 06:25:43;;;;;;;16.30;9.00;;;;;;;19.08;87.42;100414.88;106579;1270;22712;-71
2022/08/13 06:28:16;;;;;;;18.10;9.80;;;;;;;19.11;87.61;100416.79;106444;1270;26489;-71
2022/08/13 06:30:49;;;;;;;17.50;9.70;;;;;;;19.12;87.65;100413.67;106533;1270;22698;-72
2022/08/13 06:33:22;;;;;;;19.10;10.50;;;;;;;19.14;88.03;100415.58;106379;1270;22531;-71
2022/08/13 06:35:57;;;;;;;17.30;9.80;;;;;;;19.14;88.12;100414.70;106231;1270;22559;-72
2022/08/13 06:38:32;;;;;;;18.70;9.80;;;;;;;19.15;88.29;100410.69;106711;1270;22590;-72
2022/08/13 06:41:06;;;;;;;20.20;10.80;;;;;;;19.14;88.24;100412.13;106447;1269;23171;-71
2022/08/13 06:43:40;;;;;;;19.80;10.90;;;;;;;19.15;88.83;100408.73;106399;1270;22654;-71
2022/08/13 06:46:15;;;;;;;20.80;10.70;;;;;;;19.13;88.80;100410.55;106583;1270;22557;-71
2022/08/13 06:48:49;;;;;;;18.00;10.10;;;;;;;19.15;88.73;100412.69;106546;1270;26670;-71
2022/08/13 06:51:22;;;;;;;21.50;11.70;;;;;;;19.19;88.60;100414.80;106448;1270;22618;-71
2022/08/13 06:53:55;;;;;;;20.90;12.70;;;;;;;19.22;88.94;100416.64;106331;1270;22646;-72
2022/08/13 06:56:29;;;;;;;19.30;11.00;;;;;;;19.24;88.93;100417.54;106427;1270;22540;-72
2022/08/13 06:59:01;;;;;;;20.70;11.60;;;;;;;19.26;88.98;100415.66;106485;1269;25391;-72
2022/08/13 07:01:32;;;;;;;22.80;12.10;;;;;;;19.30;89.07;100418.54;106578;1270;22566;-72
2022/08/13 07:04:04;;;;;;;19.40;10.00;;;;;;;19.34;88.94;100416.77;106511;1270;25165;-71
2022/08/13 07:06:37;;;;;;;19.60;11.70;;;;;;;19.37;89.26;100413.23;106466;1270;24310;-72
2022/08/13 07:09:09;;;;;;;18.70;10.90;;;;;;;19.40;89.20;100411.86;106585;1270;23143;-72
2022/08/13 07:11:44;;;;;;;20.70;13.10;;;;;;;19.42;89.48;100415.38;106435;1270;22557;-72
2022/08/13 07:14:16;;;;;;;22.40;12.50;;;;;;;19.42;89.55;100412.44;106491;1270;23156;-72
2022/08/13 07:16:47;;;;;;;23.40;13.00;;;;;;;19.41;89.66;100411.33;106356;1270;24368;-72
2022/08/13 07:19:21;;;;;;;23.00;13.70;;;;;;;19.41;89.63;100415.69;106430;1270;24252;-72
2022/08/13 07:21:52;;;;;;;26.00;13.40;;;;;;;19.44;89.86;100416.74;106505;1270;22717;-71
2022/08/13 07:24:25;;;;;;;23.10;14.30;;;;;;;19.48;89.53;100415.91;106455;1270;22667;-72
2022/08/13 07:26:59;;;;;;;25.00;13.20;;;;;;;19.53;89.97;100408.12;106345;1270;22767;-72
2022/08/13 07:29:32;;;;;;;25.60;13.80;;;;;;;19.56;89.88;100407.88;106562;1269;22555;-71
2022/08/13 07:32:06;;;;;;;21.60;12.00;;;;;;;19.59;89.57;100405.91;106510;1270;23917;-72
2022/08/13 07:34:38;;;;;;;22.00;12.40;;;;;;;19.62;89.47;100407.98;106459;1270;22757;-72
2022/08/13 07:37:09;;;;;;;20.10;11.90;;;;;;;19.65;89.64;100407.97;106460;1270;25477;-72
2022/08/13 07:39:42;;;;;;;22.50;12.70;;;;;;;19.69;89.28;100410.84;106492;1270;23232;-71
2022/08/13 07:42:15;;;;;;;27.50;13.50;;;;;;;19.73;89.47;100411.09;106506;1270;24257;-72
2022/08/13 07:44:52;;;;;;;21.10;12.40;;;;;;;19.75;89.27;100411.13;106290;1270;22556;-72
2022/08/13 07:47:24;;;;;;;22.00;11.20;;;;;;;19.79;89.06;100411.92;106491;1270;22685;-72
2022/08/13 07:49:57;;;;;;;24.50;13.10;;;;;;;19.83;89.22;100416.08;106450;1270;22559;-72
2022/08/13 07:52:29;;;;;;;22.90;13.40;;;;;;;19.86;89.36;100418.92;106472;1270;22692;-71
2022/08/13 07:55:02;;;;;;;23.60;13.60;;;;;;;19.86;89.30;100417.98;106345;1270;23355;-72
2022/08/13 07:57:34;;;;;;;22.80;14.40;;;;;;;19.88;89.20;100420.30;106445;1270;23895;-72
2022/08/13 08:00:21;;;;;;;24.20;13.70;;;;;;;19.88;89.48;100418.33;106504;1268;23738;-71
2022/08/13 08:03:01;;;;;;;21.50;13.20;;;;;;;19.88;88.94;100423.17;106527;1268;22541;-72
2022/08/13 08:05:35;;;;;;;23.90;13.50;;;;;;;19.91;89.26;100419.73;106536;1268;22579;-71
2022/08/13 08:08:08;;;;;;;22.30;12.90;;;;;;;19.92;89.22;100421.00;106517;1267;22613;-71
2022/08/13 08:10:41;;;;;;;23.20;14.60;;;;;;;19.94;89.14;100425.77;106371;1270;25507;-72
2022/08/13 08:13:15;;;;;;;21.20;13.10;;;;;;;19.96;89.12;100428.24;106590;1268;24212;-72
2022/08/13 08:15:47;;;;;;;25.60;14.90;;;;;;;19.99;88.86;100428.20;106548;1268;24428;-72
2022/08/13 08:18:18;;;;;;;22.60;13.40;;;;;;;20.01;89.23;100426.67;106312;1268;22545;-72
2022/08/13 08:21:04;;;;;;;23.20;13.80;;;;;;;20.02;88.90;100429.23;106460;1268;22641;-72
2022/08/13 08:23:37;;;;;;;25.10;14.50;;;;;;;20.03;89.19;100431.32;106547;1269;22709;-72
2022/08/13 08:26:09;;;;;;;23.30;13.80;;;;;;;20.02;88.93;100434.48;106632;1268;24296;-72
2022/08/13 08:28:41;;;;;;;23.50;13.90;;;;;;;20.02;89.11;100432.83;106500;1270;22658;-72
2022/08/13 08:31:15;;;;;;;21.80;13.50;;;;;;;20.02;89.20;100431.69;106492;1268;24414;-72
2022/08/13 08:33:47;;;;;;;22.20;13.60;;;;;;;20.01;89.14;100431.96;106564;1270;22542;-72
2022/08/13 08:36:18;;;;;;;20.40;12.80;;;;;;;20.03;89.09;100437.70;106567;1268;25523;-72
2022/08/13 08:44:36;;;;;;;21.00;12.90;;;;;;;20.11;89.28;100438.35;106466;1268;22732;-72
2022/08/13 08:47:11;;;;;;;22.60;13.30;;;;;;;20.16;89.35;100438.05;106493;1269;25508;-73
2022/08/13 08:49:44;;;;;;;20.00;12.60;;;;;;;20.17;89.63;100433.39;106432;1270;22626;-72
2022/08/13 08:52:16;;;;;;;21.60;13.30;;;;;;;20.14;89.39;100432.08;106617;1268;24396;-72
2022/08/13 08:54:49;;;;;;;22.50;13.80;;;;;;;20.10;89.61;100434.96;106449;1270;22544;-72
2022/08/13 08:57:20;;;;;;;21.10;13.20;;;;;;;20.14;89.91;100435.05;106510;1268;25477;-72
2022/08/13 08:59:52;;;;;;;22.50;12.80;;;;;;;20.14;89.95;100435.66;106486;1270;22541;-73
2022/08/13 09:02:24;;;;;;;22.40;14.40;;;;;;;20.17;89.93;100431.23;106582;1268;24280;-73
2022/08/13 09:04:56;;;;;;;22.90;13.00;;;;;;;20.23;90.11;100428.14;106426;1270;25329;-73
2022/08/13 09:07:29;;;;;;;21.90;13.80;;;;;;;20.25;90.08;100425.94;106630;1267;25225;-72
2022/08/13 09:10:01;;;;;;;20.90;12.30;;;;;;;20.29;90.37;100420.71;106543;1269;22518;-72
2022/08/13 09:12:33;;;;;;;21.60;12.60;;;;;;;20.31;90.22;100421.90;106530;1267;25350;-72
2022/08/13 09:15:07;;;;;;;22.70;13.60;;;;;;;20.36;90.50;100420.63;106440;1268;26599;-72
2022/08/13 09:17:41;;;;;;;24.40;13.60;;;;;;;20.44;90.61;100418.79;106464;1268;22539;-72
2022/08/13 09:20:14;;;;;;;20.60;13.10;;;;;;;20.46;90.39;100420.34;106420;1268;23216;-72
2022/08/13 09:22:48;;;;;;;22.50;12.20;;;;;;;20.50;90.61;100416.52;106827;1268;22528;-72
2022/08/13 09:25:19;;;;;;;21.10;12.80;;;;;;;20.52;90.36;100421.13;106435;1268;24296;-72
2022/08/13 09:27:54;;;;;;;22.00;12.50;;;;;;;20.56;90.28;100422.95;106526;1268;22802;-72
2022/08/13 09:30:26;;;;;;;19.30;11.10;;;;;;;20.60;90.37;100420.59;106599;1268;22621;-72
2022/08/13 09:33:02;;;;;;;19.10;12.00;;;;;;;20.62;90.16;100423.09;106528;1267;25546;-72
2022/08/13 09:35:35;;;;;;;18.80;10.70;;;;;;;20.67;90.43;100422.52;106605;1268;26507;-72
2022/08/13 09:38:07;;;;;;;20.90;11.40;;;;;;;20.75;90.54;100422.88;106563;1268;22756;-72
2022/08/13 09:40:45;;;;;;;18.60;11.20;;;;;;;20.81;90.30;100423.08;106636;1268;22550;-72
2022/08/13 09:43:20;;;;;;;18.40;11.10;;;;;;;20.85;90.14;100426.08;106557;1269;22544;-72
2022/08/13 09:45:52;;;;;;;18.60;10.80;;;;;;;20.85;89.86;100421.91;106413;1270;25230;-72
2022/08/13 09:48:24;;;;;;;21.00;12.30;;;;;;;20.84;89.95;100423.52;106552;1268;24274;-72
2022/08/13 09:50:56;;;;;;;16.40;9.80;;;;;;;20.84;89.98;100425.53;106576;1268;22700;-72
2022/08/13 09:53:28;;;;;;;21.00;12.20;;;;;;;20.88;89.94;100420.77;106459;1268;22535;-72
2022/08/13 09:56:00;;;;;;;19.70;12.00;;;;;;;20.93;90.26;100416.95;106493;1268;22623;-72
2022/08/13 09:58:32;;;;;;;18.20;10.30;;;;;;;21.00;90.12;100414.39;106492;1268;26687;-72
2022/08/13 10:01:04;;;;;;;17.90;11.00;;;;;;;21.07;89.86;100411.41;106471;1270;24250;-72
2022/08/13 10:03:39;;;;;;;18.60;11.00;;;;;;;21.19;89.71;100411.23;106516;1267;25514;-72
2022/08/13 10:06:11;;;;;;;22.30;13.60;;;;;;;21.31;89.87;100409.86;106469;1267;22518;-72
2022/08/13 10:08:44;;;;;;;22.00;13.10;;;;;;;21.46;90.84;100404.42;106417;1270;25327;-72
2022/08/13 10:11:16;;;;;;;19.30;11.30;;;;;;;21.62;90.50;100406.42;106433;1268;22617;-72
2022/08/13 10:13:48;;;;;;;19.80;10.80;;;;;;;21.69;89.51;100404.86;106454;1270;22611;-72
2022/08/13 10:16:20;;;;;;;21.10;12.40;;;;;;;21.76;89.23;100405.73;106482;1269;25226;-73
2022/08/13 10:18:51;;;;;;;17.60;9.90;;;;;;;21.85;88.87;100407.77;106428;1270;23933;-72
2022/08/13 10:21:24;;;;;;;17.10;10.40;;;;;;;21.84;87.96;100407.84;106586;1268;22565;-72
2022/08/13 10:23:56;;;;;;;15.30;9.50;;;;;;;21.84;87.95;100409.02;106518;1268;22618;-72
2022/08/13 10:26:28;;;;;;;17.40;9.60;;;;;;;21.88;87.64;100403.48;106481;1268;24364;-72
2022/08/13 10:28:59;;;;;;;16.30;9.00;;;;;;;21.88;87.42;100401.70;106409;1270;24318;-72
2022/08/13 10:31:31;;;;;;;16.70;10.00;;;;;;;21.88;87.47;100402.17;106504;1270;22550;-72
2022/08/13 10:34:03;;;;;;;16.00;9.20;;;;;;;21.87;87.31;100398.68;106481;1270;24271;-72
2022/08/13 10:36:37;;;;;;;19.00;9.50;;;;;;;21.89;87.60;100398.35;106537;1270;23052;-72
2022/08/13 10:39:08;;;;;;;17.40;9.40;;;;;;;21.91;87.22;100398.27;106625;1268;22551;-72
2022/08/13 10:41:42;;;;;;;17.50;9.60;;;;;;;21.91;86.87;100396.97;106439;1269;25339;-72
2022/08/13 10:44:14;;;;;;;15.80;9.70;;;;;;;21.90;86.74;100398.70;106447;1270;26564;-72
2022/08/13 10:46:46;;;;;;;15.60;8.90;;;;;;;21.87;86.50;100394.28;106534;1271;25289;-72
2022/08/13 10:49:17;;;;;;;18.50;10.10;;;;;;;21.85;86.62;100392.37;106432;1269;22998;-72
2022/08/13 10:51:49;;;;;;;16.10;9.60;;;;;;;21.88;86.94;100389.54;106400;1270;22715;-72
2022/08/13 10:54:21;;;;;;;13.60;8.70;;;;;;;21.94;86.97;100385.20;106452;1270;23068;-72
2022/08/13 10:56:53;;;;;;;14.60;8.40;;;;;;;22.01;86.72;100379.77;106450;1268;22547;-72
2022/08/13 10:59:24;;;;;;;15.50;9.20;;;;;;;22.06;86.38;100377.42;106486;1271;22786;-72
2022/08/13 11:01:55;;;;;;;19.60;10.10;;;;;;;22.07;86.22;100373.15;107322;1258;23618;-77
2022/08/13 11:04:28;;;;;;;18.40;9.50;;;;;;;22.08;85.98;100368.30;107009;1267;22607;-78
2022/08/13 11:07:01;;;;;;;17.10;9.50;;;;;;;22.06;85.71;100371.25;107072;1267;22533;-77
2022/08/13 11:09:33;;;;;;;17.40;8.70;;;;;;;22.04;85.53;100365.73;106937;1267;22525;-78
2022/08/13 11:12:05;;;;;;;16.90;9.50;;;;;;;22.06;85.56;100363.44;107012;1267;22693;-77
2022/08/13 11:14:37;;;;;;;16.40;8.70;;;;;;;22.10;85.35;100354.54;106977;1268;22691;-77
2022/08/13 11:17:11;;;;;;;18.90;9.50;;;;;;;22.12;85.34;100358.71;106961;1268;22473;-77
2022/08/13 11:19:45;;;;;;;17.40;8.50;;;;;;;22.20;85.25;100355.40;107020;1270;22476;-77
2022/08/13 11:22:17;;;;;;;16.30;7.70;;;;;;;22.25;84.67;100350.99;106968;1270;22617;-77
2022/08/13 11:24:48;;;;;;;16.00;9.20;;;;;;;22.30;84.42;100351.34;106894;1270;25355;-77
2022/08/13 11:27:20;;;;;;;17.10;9.50;;;;;;;22.35;84.36;100352.25;106949;1269;24126;-77
2022/08/13 11:29:52;;;;;;;16.30;8.90;;;;;;;22.33;84.14;100350.76;106898;1270;22549;-77
2022/08/13 11:32:24;;;;;;;16.30;9.00;;;;;;;22.27;83.80;100345.67;107107;1268;22544;-78
2022/08/13 11:34:55;;;;;;;14.40;8.20;;;;;;;22.21;83.47;100348.20;106993;1269;23994;-77
2022/08/13 11:37:27;;;;;;;19.40;10.00;;;;;;;22.15;83.86;100345.80;107003;1270;22693;-77
2022/08/13 11:39:58;;;;;;;16.10;8.90;;;;;;;22.16;84.12;100347.22;106981;1270;25362;-78
2022/08/13 11:42:30;;;;;;;17.10;9.70;;;;;;;22.22;84.22;100345.30;106975;1270;22569;-77
2022/08/13 11:45:01;;;;;;;15.70;9.20;;;;;;;22.30;83.50;100348.19;107039;1270;25864;-77
2022/08/13 11:47:38;;;;;;;15.10;8.90;;;;;;;22.36;83.48;100351.16;106985;1268;22499;-77
2022/08/13 11:50:11;;;;;;;18.90;9.40;;;;;;;22.44;82.88;100345.83;106966;1270;22547;-78